createdAt,value
2016-03-26T00:00:58.720Z,0
2016-03-26T00:01:58.581Z,0
2016-03-26T00:02:58.600Z,0
2016-03-26T00:03:58.617Z,0
2016-03-26T00:04:58.793Z,0
2016-03-26T00:05:58.795Z,0
2016-03-26T00:06:58.830Z,0
2016-03-26T00:07:58.848Z,0
2016-03-26T00:08:58.835Z,0
2016-03-26T00:09:58.869Z,0
2016-03-26T00:10:58.872Z,0
2016-03-26T00:11:58.952Z,0
2016-03-26T00:12:58.908Z,0
2016-03-26T00:13:58.942Z,0
2016-03-26T00:14:58.944Z,0
2016-03-26T00:15:58.963Z,0
2016-03-26T00:16:58.982Z,0
2016-03-26T00:17:58.999Z,0
2016-03-26T00:18:59.049Z,0
2016-03-26T00:19:59.021Z,0
2016-03-26T00:20:59.038Z,0
2016-03-26T00:21:58.901Z,0
2016-03-26T00:22:59.090Z,0
2016-03-26T00:23:59.093Z,0
2016-03-26T00:24:59.096Z,0
2016-03-26T00:25:59.006Z,0
2016-03-26T00:26:59.259Z,0
2016-03-26T00:27:59.182Z,0
2016-03-26T00:28:59.029Z,0
2016-03-26T00:29:59.078Z,0
2016-03-26T00:30:59.222Z,0
2016-03-26T00:31:59.240Z,0
2016-03-26T00:32:59.227Z,0
2016-03-26T00:33:59.292Z,0
2016-03-26T00:34:59.280Z,0
2016-03-26T00:35:59.298Z,0
2016-03-26T00:36:59.316Z,0
2016-03-26T00:37:59.335Z,0
2016-03-26T00:38:59.353Z,0
2016-03-26T00:39:59.371Z,0
2016-03-26T00:40:59.389Z,0
2016-03-26T00:41:59.396Z,0
2016-03-26T00:42:59.336Z,0
2016-03-26T00:43:59.433Z,0
2016-03-26T00:44:59.420Z,0
2016-03-26T00:45:59.470Z,0
2016-03-26T00:46:59.487Z,0
2016-03-26T00:47:59.522Z,0
2016-03-26T00:48:59.525Z,0
2016-03-26T00:49:59.511Z,0
2016-03-26T00:50:59.561Z,0
2016-03-26T00:51:59.579Z,0
2016-03-26T00:52:59.598Z,0
2016-03-26T00:53:59.600Z,0
2016-03-26T00:54:59.619Z,0
2016-03-26T00:55:59.621Z,0
2016-03-26T00:56:59.655Z,0
2016-03-26T00:57:58.921Z,0
2016-03-26T00:58:59.674Z,0
2016-03-26T00:59:59.708Z,0
2016-03-26T01:00:59.694Z,0
2016-03-26T01:01:59.729Z,0
2016-03-26T01:02:59.732Z,0
2016-03-26T01:03:59.750Z,0
2016-03-26T01:04:59.768Z,0
2016-03-26T01:05:59.817Z,0
2016-03-26T01:06:59.871Z,0
2016-03-26T01:08:00.076Z,0
2016-03-26T01:08:59.857Z,0
2016-03-26T01:09:59.879Z,0
2016-03-26T01:10:59.896Z,0
2016-03-26T01:12:00.041Z,0
2016-03-26T01:12:59.916Z,0
2016-03-26T01:13:59.936Z,0
2016-03-26T01:14:59.955Z,0
2016-03-26T01:15:59.974Z,0
2016-03-26T01:16:59.976Z,0
2016-03-26T01:18:00.025Z,0
2016-03-26T01:18:59.996Z,0
2016-03-26T01:20:00.046Z,0
2016-03-26T01:21:00.049Z,0
2016-03-26T01:22:00.067Z,0
2016-03-26T01:23:00.085Z,0
2016-03-26T01:24:00.120Z,0
2016-03-26T01:25:00.106Z,0
2016-03-26T01:26:00.125Z,0
2016-03-26T01:27:00.096Z,0
2016-03-26T01:28:00.177Z,0
2016-03-26T01:29:00.180Z,0
2016-03-26T01:30:00.214Z,0
2016-03-26T01:31:00.232Z,0
2016-03-26T01:32:00.235Z,0
2016-03-26T01:32:59.501Z,0
2016-03-26T01:34:00.272Z,0
2016-03-26T01:35:00.274Z,0
2016-03-26T01:36:00.308Z,0
2016-03-26T01:37:00.310Z,0
2016-03-26T01:38:00.344Z,0
2016-03-26T01:39:00.332Z,0
2016-03-26T01:40:00.349Z,0
2016-03-26T01:41:00.400Z,0
2016-03-26T01:42:00.259Z,0
2016-03-26T01:43:00.421Z,0
2016-03-26T01:44:00.439Z,0
2016-03-26T01:45:00.442Z,0
2016-03-26T01:46:00.460Z,0
2016-03-26T01:47:00.509Z,0
2016-03-26T01:48:00.496Z,0
2016-03-26T01:49:00.515Z,0
2016-03-26T01:50:00.549Z,0
2016-03-26T01:51:00.551Z,0
2016-03-26T01:52:00.570Z,0
2016-03-26T01:53:00.588Z,0
2016-03-26T01:54:00.622Z,0
2016-03-26T01:55:00.640Z,0
2016-03-26T01:56:00.643Z,0
2016-03-26T01:57:00.645Z,0
2016-03-26T01:58:00.679Z,0
2016-03-26T01:59:00.697Z,0
2016-03-26T02:00:00.731Z,0
2016-03-26T02:01:00.735Z,0
2016-03-26T02:02:00.579Z,0
2016-03-26T02:03:00.753Z,0
2016-03-26T02:04:00.756Z,0
2016-03-26T02:05:00.790Z,0
2016-03-26T02:06:00.823Z,0
2016-03-26T02:07:00.108Z,0
2016-03-26T02:08:00.844Z,0
2016-03-26T02:09:00.847Z,0
2016-03-26T02:10:00.881Z,0
2016-03-26T02:11:00.883Z,0
2016-03-26T02:12:00.746Z,0
2016-03-26T02:13:00.155Z,0
2016-03-26T02:14:00.939Z,0
2016-03-26T02:15:00.957Z,0
2016-03-26T02:16:00.975Z,0
2016-03-26T02:17:00.978Z,0
2016-03-26T02:18:00.997Z,0
2016-03-26T02:19:01.030Z,0
2016-03-26T02:20:01.049Z,0
2016-03-26T02:21:01.051Z,0
2016-03-26T02:22:01.085Z,0
2016-03-26T02:23:01.088Z,0
2016-03-26T02:24:01.121Z,0
2016-03-26T02:25:01.109Z,0
2016-03-26T02:26:01.158Z,0
2016-03-26T02:27:01.145Z,0
2016-03-26T02:28:01.179Z,0
2016-03-26T02:29:01.182Z,0
2016-03-26T02:30:01.217Z,0
2016-03-26T02:31:01.235Z,0
2016-03-26T02:32:01.237Z,0
2016-03-26T02:33:01.240Z,0
2016-03-26T02:34:01.273Z,0
2016-03-26T02:35:01.292Z,0
2016-03-26T02:36:01.310Z,0
2016-03-26T02:37:01.328Z,0
2016-03-26T02:38:01.331Z,0
2016-03-26T02:39:01.349Z,0
2016-03-26T02:40:01.369Z,0
2016-03-26T02:41:01.386Z,0
2016-03-26T02:42:01.389Z,0
2016-03-26T02:43:01.407Z,0
2016-03-26T02:44:01.441Z,0
2016-03-26T02:45:01.460Z,0
2016-03-26T02:46:01.494Z,0
2016-03-26T02:47:01.480Z,0
2016-03-26T02:48:01.515Z,0
2016-03-26T02:49:01.533Z,0
2016-03-26T02:50:01.379Z,0
2016-03-26T02:51:01.554Z,0
2016-03-26T02:52:01.571Z,0
2016-03-26T02:53:01.435Z,0
2016-03-26T02:54:01.609Z,0
2016-03-26T02:55:01.612Z,0
2016-03-26T02:56:01.646Z,0
2016-03-26T02:57:01.664Z,0
2016-03-26T02:58:01.667Z,0
2016-03-26T02:59:01.529Z,0
2016-03-26T03:00:01.703Z,0
2016-03-26T03:01:01.565Z,0
2016-03-26T03:02:01.724Z,0
2016-03-26T03:03:01.759Z,0
2016-03-26T03:04:01.761Z,0
2016-03-26T03:05:01.811Z,0
2016-03-26T03:06:01.798Z,0
2016-03-26T03:07:01.503Z,0
2016-03-26T03:08:01.850Z,0
2016-03-26T03:09:01.837Z,0
2016-03-26T03:10:01.870Z,0
2016-03-26T03:11:01.733Z,0
2016-03-26T03:12:02.032Z,0
2016-03-26T03:13:01.911Z,0
2016-03-26T03:14:01.960Z,0
2016-03-26T03:15:01.962Z,0
2016-03-26T03:16:01.965Z,0
2016-03-26T03:17:02.030Z,0
2016-03-26T03:18:02.017Z,0
2016-03-26T03:19:02.019Z,0
2016-03-26T03:20:02.038Z,0
2016-03-26T03:21:02.057Z,0
2016-03-26T03:22:02.090Z,0
2016-03-26T03:23:02.077Z,0
2016-03-26T03:24:02.112Z,0
2016-03-26T03:25:02.114Z,0
2016-03-26T03:26:02.132Z,0
2016-03-26T03:27:02.166Z,0
2016-03-26T03:28:02.184Z,0
2016-03-26T03:29:02.187Z,0
2016-03-26T03:30:02.190Z,0
2016-03-26T03:31:02.224Z,0
2016-03-26T03:32:02.226Z,0
2016-03-26T03:33:02.276Z,0
2016-03-26T03:34:02.309Z,0
2016-03-26T03:35:02.298Z,0
2016-03-26T03:36:02.316Z,0
2016-03-26T03:37:02.334Z,0
2016-03-26T03:38:02.353Z,0
2016-03-26T03:39:02.371Z,0
2016-03-26T03:40:02.373Z,0
2016-03-26T03:41:01.626Z,0
2016-03-26T03:42:02.411Z,0
2016-03-26T03:43:02.414Z,0
2016-03-26T03:44:02.447Z,0
2016-03-26T03:45:02.465Z,0
2016-03-26T03:46:02.483Z,0
2016-03-26T03:47:02.486Z,0
2016-03-26T03:48:02.519Z,0
2016-03-26T03:49:02.366Z,0
2016-03-26T03:50:02.541Z,0
2016-03-26T03:51:02.575Z,0
2016-03-26T03:52:02.577Z,0
2016-03-26T03:53:02.596Z,0
2016-03-26T03:54:02.630Z,0
2016-03-26T03:55:02.601Z,0
2016-03-26T03:56:02.682Z,0
2016-03-26T03:57:02.638Z,0
2016-03-26T03:58:02.671Z,0
2016-03-26T03:59:02.675Z,0
2016-03-26T04:00:02.709Z,0
2016-03-26T04:01:02.726Z,0
2016-03-26T04:02:02.746Z,0
2016-03-26T04:03:02.763Z,0
2016-03-26T04:04:02.781Z,0
2016-03-26T04:05:02.784Z,0
2016-03-26T04:06:02.818Z,0
2016-03-26T04:07:02.820Z,0
2016-03-26T04:08:02.840Z,0
2016-03-26T04:09:02.092Z,0
2016-03-26T04:10:02.875Z,0
2016-03-26T04:11:02.879Z,0
2016-03-26T04:12:02.928Z,0
2016-03-26T04:13:02.914Z,0
2016-03-26T04:14:02.934Z,0
2016-03-26T04:15:02.967Z,0
2016-03-26T04:16:02.970Z,0
2016-03-26T04:17:03.005Z,0
2016-03-26T04:18:02.991Z,0
2016-03-26T04:19:03.041Z,0
2016-03-26T04:20:03.044Z,0
2016-03-26T04:21:03.061Z,0
2016-03-26T04:22:02.939Z,0
2016-03-26T04:23:03.113Z,0
2016-03-26T04:24:02.945Z,0
2016-03-26T04:25:03.104Z,0
2016-03-26T04:26:03.154Z,0
2016-03-26T04:27:03.140Z,0
2016-03-26T04:28:03.174Z,0
2016-03-26T04:29:03.177Z,0
2016-03-26T04:30:03.226Z,0
2016-03-26T04:31:03.213Z,0
2016-03-26T04:32:03.263Z,0
2016-03-26T04:33:03.251Z,0
2016-03-26T04:34:03.300Z,0
2016-03-26T04:35:03.287Z,0
2016-03-26T04:36:03.134Z,0
2016-03-26T04:37:03.308Z,0
2016-03-26T04:38:03.342Z,0
2016-03-26T04:39:03.360Z,0
2016-03-26T04:40:03.362Z,0
2016-03-26T04:41:03.382Z,0
2016-03-26T04:42:03.415Z,0
2016-03-26T04:43:03.433Z,0
2016-03-26T04:44:03.452Z,0
2016-03-26T04:45:03.455Z,0
2016-03-26T04:46:03.476Z,0
2016-03-26T04:47:03.496Z,0
2016-03-26T04:48:02.763Z,0
2016-03-26T04:49:03.390Z,0
2016-03-26T04:50:03.551Z,0
2016-03-26T04:51:03.553Z,0
2016-03-26T04:52:03.601Z,0
2016-03-26T04:53:03.590Z,0
2016-03-26T04:54:03.623Z,0
2016-03-26T04:55:03.626Z,0
2016-03-26T04:56:03.644Z,0
2016-03-26T04:57:03.647Z,0
2016-03-26T04:58:03.664Z,0
2016-03-26T04:59:03.528Z,0
2016-03-26T05:00:03.733Z,0
2016-03-26T05:01:03.704Z,0
2016-03-26T05:02:03.754Z,0
2016-03-26T05:03:03.756Z,0
2016-03-26T05:04:03.775Z,0
2016-03-26T05:05:03.778Z,0
2016-03-26T05:06:03.796Z,0
2016-03-26T05:07:03.846Z,0
2016-03-26T05:08:03.817Z,0
2016-03-26T05:09:03.882Z,0
2016-03-26T05:10:03.885Z,0
2016-03-26T05:11:03.903Z,0
2016-03-26T05:12:03.891Z,0
2016-03-26T05:13:04.252Z,0
2016-03-26T05:14:03.958Z,0
2016-03-26T05:15:03.961Z,0
2016-03-26T05:16:03.979Z,0
2016-03-26T05:17:03.997Z,0
2016-03-26T05:18:04.031Z,0
2016-03-26T05:19:04.018Z,0
2016-03-26T05:20:04.037Z,0
2016-03-26T05:21:04.055Z,0
2016-03-26T05:22:04.073Z,0
2016-03-26T05:23:04.107Z,0
2016-03-26T05:24:04.095Z,0
2016-03-26T05:25:04.128Z,0
2016-03-26T05:26:04.147Z,0
2016-03-26T05:27:04.165Z,0
2016-03-26T05:28:04.355Z,0
2016-03-26T05:29:04.202Z,0
2016-03-26T05:30:04.204Z,0
2016-03-26T05:31:04.222Z,0
2016-03-26T05:32:04.242Z,0
2016-03-26T05:33:04.244Z,0
2016-03-26T05:34:04.277Z,0
2016-03-26T05:35:04.280Z,0
2016-03-26T05:36:04.314Z,5
2016-03-26T05:37:04.332Z,5
2016-03-26T05:38:04.351Z,5
2016-03-26T05:39:04.369Z,5
2016-03-26T05:40:04.388Z,5
2016-03-26T05:41:04.438Z,5
2016-03-26T05:42:04.408Z,5
2016-03-26T05:43:04.363Z,5
2016-03-26T05:44:04.446Z,5
2016-03-26T05:45:04.557Z,5
2016-03-26T05:46:04.466Z,5
2016-03-26T05:47:04.563Z,5
2016-03-26T05:48:04.534Z,10
2016-03-26T05:49:04.552Z,10
2016-03-26T05:50:04.555Z,10
2016-03-26T05:51:04.604Z,10
2016-03-26T05:52:04.576Z,10
2016-03-26T05:53:05.200Z,10
2016-03-26T05:54:04.850Z,15
2016-03-26T05:55:04.152Z,15
2016-03-26T05:56:05.283Z,15
2016-03-26T05:57:05.492Z,15
2016-03-26T05:58:05.231Z,20
2016-03-26T05:59:04.701Z,20
2016-03-26T06:00:03.938Z,20
2016-03-26T06:01:04.706Z,25
2016-03-26T06:02:04.741Z,25
2016-03-26T06:03:04.759Z,30
2016-03-26T06:04:04.761Z,30
2016-03-26T06:05:04.795Z,35
2016-03-26T06:06:04.793Z,35
2016-03-26T06:07:04.823Z,40
2016-03-26T06:08:04.816Z,40
2016-03-26T06:09:04.061Z,45
2016-03-26T06:10:04.836Z,45
2016-03-26T06:11:04.834Z,50
2016-03-26T06:12:04.865Z,50
2016-03-26T06:13:04.145Z,55
2016-03-26T06:14:04.880Z,55
2016-03-26T06:15:04.894Z,60
2016-03-26T06:16:04.927Z,60
2016-03-26T06:17:04.928Z,65
2016-03-26T06:18:04.930Z,70
2016-03-26T06:19:04.963Z,80
2016-03-26T06:20:04.965Z,85
2016-03-26T06:21:04.998Z,85
2016-03-26T06:22:05.016Z,90
2016-03-26T06:23:05.033Z,90
2016-03-26T06:24:05.051Z,90
2016-03-26T06:25:05.053Z,90
2016-03-26T06:26:04.931Z,85
2016-03-26T06:27:04.934Z,100
2016-03-26T06:28:05.109Z,105
2016-03-26T06:29:05.128Z,105
2016-03-26T06:30:05.161Z,110
2016-03-26T06:31:05.178Z,110
2016-03-26T06:32:05.182Z,110
2016-03-26T06:33:05.216Z,115
2016-03-26T06:34:05.202Z,115
2016-03-26T06:35:05.236Z,120
2016-03-26T06:36:05.271Z,120
2016-03-26T06:37:05.274Z,120
2016-03-26T06:38:05.291Z,120
2016-03-26T06:39:05.310Z,125
2016-03-26T06:40:05.312Z,125
2016-03-26T06:41:05.330Z,120
2016-03-26T06:42:05.365Z,125
2016-03-26T06:43:05.649Z,125
2016-03-26T06:44:05.385Z,125
2016-03-26T06:45:05.405Z,130
2016-03-26T06:46:05.423Z,125
2016-03-26T06:47:05.440Z,130
2016-03-26T06:48:05.460Z,130
2016-03-26T06:49:05.477Z,130
2016-03-26T06:50:05.511Z,130
2016-03-26T06:51:05.515Z,135
2016-03-26T06:52:05.532Z,135
2016-03-26T06:53:05.551Z,135
2016-03-26T06:54:05.584Z,135
2016-03-26T06:55:05.587Z,135
2016-03-26T06:56:05.606Z,135
2016-03-26T06:57:05.623Z,140
2016-03-26T06:58:05.845Z,140
2016-03-26T06:59:05.660Z,140
2016-03-26T07:00:05.695Z,140
2016-03-26T07:01:05.697Z,140
2016-03-26T07:02:05.716Z,140
2016-03-26T07:03:05.719Z,140
2016-03-26T07:04:05.767Z,145
2016-03-26T07:05:05.770Z,145
2016-03-26T07:06:05.758Z,145
2016-03-26T07:07:05.791Z,145
2016-03-26T07:08:05.825Z,150
2016-03-26T07:09:05.844Z,140
2016-03-26T07:10:05.863Z,150
2016-03-26T07:11:05.880Z,155
2016-03-26T07:12:05.882Z,155
2016-03-26T07:13:05.964Z,155
2016-03-26T07:14:05.935Z,155
2016-03-26T07:15:05.953Z,155
2016-03-26T07:16:05.988Z,130
2016-03-26T07:17:05.974Z,140
2016-03-26T07:18:06.009Z,150
2016-03-26T07:19:06.027Z,150
2016-03-26T07:20:06.029Z,155
2016-03-26T07:21:06.079Z,155
2016-03-26T07:22:06.066Z,160
2016-03-26T07:23:06.084Z,150
2016-03-26T07:24:06.103Z,155
2016-03-26T07:25:06.153Z,155
2016-03-26T07:26:06.156Z,165
2016-03-26T07:27:05.908Z,165
2016-03-26T07:28:06.160Z,170
2016-03-26T07:29:06.210Z,170
2016-03-26T07:30:06.103Z,170
2016-03-26T07:31:06.246Z,165
2016-03-26T07:32:06.265Z,155
2016-03-26T07:33:06.283Z,160
2016-03-26T07:34:06.317Z,170
2016-03-26T07:35:06.320Z,175
2016-03-26T07:36:06.322Z,180
2016-03-26T07:37:06.372Z,180
2016-03-26T07:38:06.375Z,175
2016-03-26T07:39:06.393Z,175
2016-03-26T07:40:06.396Z,180
2016-03-26T07:41:06.430Z,180
2016-03-26T07:42:06.464Z,185
2016-03-26T07:43:06.482Z,180
2016-03-26T07:44:06.485Z,185
2016-03-26T07:45:06.503Z,185
2016-03-26T07:46:06.521Z,185
2016-03-26T07:47:06.539Z,185
2016-03-26T07:48:06.558Z,185
2016-03-26T07:49:06.576Z,185
2016-03-26T07:50:06.595Z,190
2016-03-26T07:51:06.644Z,185
2016-03-26T07:52:06.490Z,185
2016-03-26T07:53:06.681Z,185
2016-03-26T07:54:06.684Z,185
2016-03-26T07:55:06.686Z,185
2016-03-26T07:56:06.720Z,185
2016-03-26T07:57:06.770Z,190
2016-03-26T07:58:06.788Z,190
2016-03-26T07:59:06.807Z,185
2016-03-26T08:00:06.778Z,185
2016-03-26T08:01:06.843Z,190
2016-03-26T08:02:06.814Z,190
2016-03-26T08:03:06.863Z,190
2016-03-26T08:04:06.883Z,190
2016-03-26T08:05:06.885Z,190
2016-03-26T08:06:06.153Z,190
2016-03-26T08:07:06.953Z,190
2016-03-26T08:08:07.424Z,185
2016-03-26T08:09:06.974Z,185
2016-03-26T08:10:06.977Z,185
2016-03-26T08:11:07.010Z,185
2016-03-26T08:12:07.013Z,185
2016-03-26T08:13:07.032Z,185
2016-03-26T08:14:07.049Z,185
2016-03-26T08:15:07.083Z,185
2016-03-26T08:16:07.086Z,185
2016-03-26T08:17:07.105Z,170
2016-03-26T08:18:07.138Z,170
2016-03-26T08:19:07.140Z,165
2016-03-26T08:20:07.176Z,170
2016-03-26T08:21:07.193Z,170
2016-03-26T08:22:07.212Z,170
2016-03-26T08:23:06.480Z,175
2016-03-26T08:24:07.248Z,175
2016-03-26T08:25:07.267Z,175
2016-03-26T08:26:07.285Z,175
2016-03-26T08:27:07.320Z,175
2016-03-26T08:28:07.322Z,180
2016-03-26T08:29:07.356Z,190
2016-03-26T08:30:07.390Z,190
2016-03-26T08:31:07.392Z,185
2016-03-26T08:32:07.411Z,190
2016-03-26T08:33:07.445Z,185
2016-03-26T08:34:07.447Z,190
2016-03-26T08:35:07.481Z,190
2016-03-26T08:36:07.483Z,185
2016-03-26T08:37:07.550Z,185
2016-03-26T08:38:07.505Z,185
2016-03-26T08:39:07.585Z,180
2016-03-26T08:40:07.558Z,185
2016-03-26T08:41:07.657Z,190
2016-03-26T08:42:07.598Z,190
2016-03-26T08:43:07.695Z,190
2016-03-26T08:44:07.634Z,190
2016-03-26T08:45:07.684Z,190
2016-03-26T08:46:07.670Z,190
2016-03-26T08:47:07.751Z,190
2016-03-26T08:48:07.708Z,195
2016-03-26T08:49:07.772Z,195
2016-03-26T08:50:07.745Z,195
2016-03-26T08:51:07.794Z,195
2016-03-26T08:52:07.797Z,195
2016-03-26T08:53:07.830Z,190
2016-03-26T08:54:07.833Z,185
2016-03-26T08:55:07.852Z,185
2016-03-26T08:56:07.869Z,195
2016-03-26T08:57:07.904Z,190
2016-03-26T08:58:07.906Z,195
2016-03-26T08:59:07.925Z,195
2016-03-26T09:00:07.928Z,195
2016-03-26T09:01:07.977Z,195
2016-03-26T09:02:07.979Z,195
2016-03-26T09:03:08.013Z,195
2016-03-26T09:04:08.016Z,195
2016-03-26T09:05:08.050Z,195
2016-03-26T09:06:08.052Z,195
2016-03-26T09:07:08.087Z,195
2016-03-26T09:08:08.089Z,200
2016-03-26T09:09:08.108Z,200
2016-03-26T09:10:07.392Z,200
2016-03-26T09:11:08.145Z,195
2016-03-26T09:12:08.179Z,200
2016-03-26T09:13:08.228Z,200
2016-03-26T09:14:08.215Z,195
2016-03-26T09:15:08.264Z,200
2016-03-26T09:16:08.251Z,200
2016-03-26T09:17:08.301Z,195
2016-03-26T09:18:08.304Z,195
2016-03-26T09:19:08.322Z,190
2016-03-26T09:20:08.325Z,200
2016-03-26T09:21:08.359Z,200
2016-03-26T09:22:08.377Z,195
2016-03-26T09:23:08.395Z,195
2016-03-26T09:24:08.414Z,195
2016-03-26T09:25:08.432Z,195
2016-03-26T09:26:08.435Z,195
2016-03-26T09:27:08.484Z,195
2016-03-26T09:28:08.486Z,195
2016-03-26T09:29:08.505Z,200
2016-03-26T09:30:08.508Z,200
2016-03-26T09:31:08.557Z,195
2016-03-26T09:32:08.576Z,200
2016-03-26T09:33:08.594Z,200
2016-03-26T09:34:08.613Z,205
2016-03-26T09:35:08.646Z,205
2016-03-26T09:36:07.915Z,200
2016-03-26T09:37:08.668Z,180
2016-03-26T09:38:08.701Z,200
2016-03-26T09:39:08.688Z,205
2016-03-26T09:40:08.723Z,205
2016-03-26T09:41:08.756Z,205
2016-03-26T09:42:08.759Z,205
2016-03-26T09:43:08.809Z,205
2016-03-26T09:44:08.811Z,205
2016-03-26T09:45:08.845Z,205
2016-03-26T09:46:08.831Z,205
2016-03-26T09:47:08.897Z,205
2016-03-26T09:48:08.900Z,205
2016-03-26T09:49:08.902Z,200
2016-03-26T09:50:08.920Z,200
2016-03-26T09:51:08.955Z,200
2016-03-26T09:52:08.989Z,205
2016-03-26T09:53:08.991Z,205
2016-03-26T09:54:09.010Z,205
2016-03-26T09:55:09.013Z,205
2016-03-26T09:56:09.062Z,205
2016-03-26T09:57:09.049Z,205
2016-03-26T09:58:09.067Z,205
2016-03-26T09:59:09.102Z,205
2016-03-26T10:00:09.119Z,205
2016-03-26T10:01:09.154Z,205
2016-03-26T10:02:09.188Z,205
2016-03-26T10:03:09.174Z,205
2016-03-26T10:04:09.209Z,200
2016-03-26T10:05:09.227Z,205
2016-03-26T10:06:09.260Z,200
2016-03-26T10:07:09.263Z,205
2016-03-26T10:08:09.266Z,205
2016-03-26T10:09:09.285Z,200
2016-03-26T10:10:09.334Z,200
2016-03-26T10:11:09.352Z,205
2016-03-26T10:12:09.354Z,200
2016-03-26T10:13:09.390Z,200
2016-03-26T10:14:09.407Z,200
2016-03-26T10:15:09.410Z,200
2016-03-26T10:16:09.460Z,200
2016-03-26T10:17:09.479Z,200
2016-03-26T10:18:09.496Z,205
2016-03-26T10:19:09.514Z,200
2016-03-26T10:20:09.533Z,200
2016-03-26T10:21:09.551Z,200
2016-03-26T10:22:09.570Z,200
2016-03-26T10:23:09.572Z,200
2016-03-26T10:24:09.606Z,200
2016-03-26T10:25:09.625Z,200
2016-03-26T10:26:09.658Z,200
2016-03-26T10:27:09.661Z,200
2016-03-26T10:28:09.695Z,200
2016-03-26T10:29:09.698Z,200
2016-03-26T10:30:09.716Z,200
2016-03-26T10:31:09.781Z,200
2016-03-26T10:32:09.799Z,200
2016-03-26T10:33:09.833Z,200
2016-03-26T10:34:09.789Z,200
2016-03-26T10:35:09.855Z,200
2016-03-26T10:36:09.841Z,205
2016-03-26T10:37:09.876Z,200
2016-03-26T10:38:09.879Z,200
2016-03-26T10:39:09.146Z,205
2016-03-26T10:40:09.946Z,200
2016-03-26T10:41:09.949Z,200
2016-03-26T10:42:10.004Z,200
2016-03-26T10:43:09.990Z,200
2016-03-26T10:44:10.009Z,200
2016-03-26T10:45:10.026Z,200
2016-03-26T10:46:10.076Z,200
2016-03-26T10:47:10.079Z,205
2016-03-26T10:48:10.114Z,205
2016-03-26T10:49:10.116Z,205
2016-03-26T10:50:10.150Z,200
2016-03-26T10:51:10.152Z,200
2016-03-26T10:52:10.203Z,200
2016-03-26T10:53:10.189Z,200
2016-03-26T10:54:10.270Z,200
2016-03-26T10:55:10.241Z,205
2016-03-26T10:56:10.275Z,200
2016-03-26T10:57:10.278Z,200
2016-03-26T10:58:10.312Z,200
2016-03-26T10:59:10.346Z,200
2016-03-26T11:00:10.349Z,200
2016-03-26T11:01:10.366Z,200
2016-03-26T11:02:10.369Z,205
2016-03-26T11:03:10.404Z,200
2016-03-26T11:04:10.421Z,200
2016-03-26T11:05:10.455Z,200
2016-03-26T11:06:10.490Z,200
2016-03-26T11:07:10.493Z,200
2016-03-26T11:08:10.510Z,195
2016-03-26T11:09:10.498Z,205
2016-03-26T11:10:10.548Z,200
2016-03-26T11:11:10.566Z,200
2016-03-26T11:12:10.599Z,200
2016-03-26T11:13:10.618Z,200
2016-03-26T11:14:10.573Z,200
2016-03-26T11:15:10.639Z,200
2016-03-26T11:16:10.657Z,200
2016-03-26T11:17:10.723Z,200
2016-03-26T11:18:10.694Z,200
2016-03-26T11:19:10.712Z,200
2016-03-26T11:20:10.746Z,200
2016-03-26T11:21:10.780Z,200
2016-03-26T11:22:10.783Z,205
2016-03-26T11:23:10.833Z,200
2016-03-26T11:24:10.819Z,200
2016-03-26T11:25:10.884Z,200
2016-03-26T11:26:10.872Z,200
2016-03-26T11:27:10.889Z,200
2016-03-26T11:28:10.908Z,200
2016-03-26T11:29:10.802Z,200
2016-03-26T11:30:10.945Z,200
2016-03-26T11:31:10.994Z,205
2016-03-26T11:32:11.013Z,205
2016-03-26T11:33:11.015Z,205
2016-03-26T11:34:11.033Z,205
2016-03-26T11:35:11.052Z,205
2016-03-26T11:36:11.086Z,210
2016-03-26T11:37:11.104Z,210
2016-03-26T11:38:11.123Z,210
2016-03-26T11:39:11.140Z,210
2016-03-26T11:40:11.175Z,210
2016-03-26T11:41:11.209Z,210
2016-03-26T11:42:11.212Z,210
2016-03-26T11:43:11.229Z,210
2016-03-26T11:44:11.092Z,210
2016-03-26T11:45:11.250Z,210
2016-03-26T11:46:11.301Z,215
2016-03-26T11:47:11.303Z,215
2016-03-26T11:48:11.321Z,215
2016-03-26T11:49:11.339Z,215
2016-03-26T11:50:11.343Z,215
2016-03-26T11:51:11.392Z,215
2016-03-26T11:52:11.411Z,215
2016-03-26T11:53:11.444Z,215
2016-03-26T11:54:11.431Z,220
2016-03-26T11:55:11.464Z,215
2016-03-26T11:56:11.500Z,215
2016-03-26T11:57:11.517Z,215
2016-03-26T11:58:11.520Z,220
2016-03-26T11:59:12.069Z,215
2016-03-26T12:00:11.558Z,220
2016-03-26T12:01:11.591Z,220
2016-03-26T12:02:11.625Z,215
2016-03-26T12:03:11.643Z,220
2016-03-26T12:04:11.677Z,220
2016-03-26T12:05:11.663Z,220
2016-03-26T12:06:11.541Z,220
2016-03-26T12:07:11.560Z,220
2016-03-26T12:08:11.735Z,220
2016-03-26T12:09:11.799Z,220
2016-03-26T12:10:11.771Z,220
2016-03-26T12:11:11.883Z,215
2016-03-26T12:12:11.824Z,220
2016-03-26T12:13:11.904Z,220
2016-03-26T12:14:12.344Z,215
2016-03-26T12:15:11.956Z,215
2016-03-26T12:16:11.896Z,215
2016-03-26T12:17:11.962Z,220
2016-03-26T12:18:11.965Z,220
2016-03-26T12:19:12.014Z,220
2016-03-26T12:20:12.017Z,220
2016-03-26T12:21:12.020Z,220
2016-03-26T12:22:12.023Z,215
2016-03-26T12:23:12.056Z,220
2016-03-26T12:24:12.090Z,220
2016-03-26T12:25:12.092Z,220
2016-03-26T12:26:12.127Z,220
2016-03-26T12:27:12.129Z,225
2016-03-26T12:28:12.164Z,220
2016-03-26T12:29:12.244Z,220
2016-03-26T12:30:12.200Z,220
2016-03-26T12:31:12.233Z,220
2016-03-26T12:32:12.237Z,220
2016-03-26T12:33:12.254Z,220
2016-03-26T12:34:12.289Z,220
2016-03-26T12:35:12.322Z,220
2016-03-26T12:36:12.325Z,220
2016-03-26T12:37:12.359Z,220
2016-03-26T12:38:12.394Z,220
2016-03-26T12:39:11.693Z,225
2016-03-26T12:40:12.430Z,220
2016-03-26T12:41:12.463Z,225
2016-03-26T12:42:12.451Z,225
2016-03-26T12:43:12.469Z,225
2016-03-26T12:44:12.519Z,225
2016-03-26T12:45:12.537Z,220
2016-03-26T12:46:12.556Z,225
2016-03-26T12:47:12.559Z,225
2016-03-26T12:48:12.592Z,210
2016-03-26T12:49:12.610Z,220
2016-03-26T12:50:12.629Z,225
2016-03-26T12:51:12.647Z,225
2016-03-26T12:52:12.681Z,230
2016-03-26T12:53:12.684Z,230
2016-03-26T12:54:12.717Z,225
2016-03-26T12:55:12.751Z,230
2016-03-26T12:56:12.754Z,225
2016-03-26T12:57:12.772Z,225
2016-03-26T12:58:12.806Z,225
2016-03-26T12:59:13.028Z,220
2016-03-26T13:00:12.828Z,220
2016-03-26T13:01:12.862Z,220
2016-03-26T13:02:12.880Z,220
2016-03-26T13:03:12.913Z,220
2016-03-26T13:04:12.916Z,220
2016-03-26T13:05:12.950Z,220
2016-03-26T13:06:12.969Z,220
2016-03-26T13:07:12.988Z,220
2016-03-26T13:08:13.005Z,220
2016-03-26T13:09:13.039Z,220
2016-03-26T13:10:13.041Z,220
2016-03-26T13:11:13.077Z,220
2016-03-26T13:12:13.093Z,220
2016-03-26T13:13:13.113Z,215
2016-03-26T13:14:13.318Z,215
2016-03-26T13:15:13.149Z,215
2016-03-26T13:16:13.182Z,210
2016-03-26T13:17:13.217Z,210
2016-03-26T13:18:13.235Z,215
2016-03-26T13:19:13.238Z,215
2016-03-26T13:20:13.272Z,215
2016-03-26T13:21:13.290Z,215
2016-03-26T13:22:13.324Z,215
2016-03-26T13:23:13.326Z,210
2016-03-26T13:24:13.361Z,210
2016-03-26T13:25:13.364Z,210
2016-03-26T13:26:13.397Z,215
2016-03-26T13:27:13.431Z,210
2016-03-26T13:28:13.450Z,210
2016-03-26T13:29:13.718Z,210
2016-03-26T13:30:13.486Z,210
2016-03-26T13:31:13.505Z,210
2016-03-26T13:32:13.523Z,210
2016-03-26T13:33:13.557Z,205
2016-03-26T13:34:13.575Z,210
2016-03-26T13:35:13.593Z,210
2016-03-26T13:36:13.597Z,205
2016-03-26T13:37:13.614Z,210
2016-03-26T13:38:13.664Z,210
2016-03-26T13:39:13.682Z,205
2016-03-26T13:40:13.701Z,205
2016-03-26T13:41:13.718Z,200
2016-03-26T13:42:13.721Z,205
2016-03-26T13:43:13.771Z,210
2016-03-26T13:44:13.883Z,205
2016-03-26T13:45:13.807Z,210
2016-03-26T13:46:13.826Z,205
2016-03-26T13:47:13.860Z,205
2016-03-26T13:48:13.863Z,210
2016-03-26T13:49:13.896Z,205
2016-03-26T13:50:13.899Z,205
2016-03-26T13:51:13.934Z,205
2016-03-26T13:52:13.951Z,200
2016-03-26T13:53:14.013Z,205
2016-03-26T13:54:13.985Z,210
2016-03-26T13:55:14.050Z,205
2016-03-26T13:56:14.037Z,200
2016-03-26T13:57:14.071Z,200
2016-03-26T13:58:14.089Z,200
2016-03-26T13:59:14.123Z,200
2016-03-26T14:00:14.110Z,200
2016-03-26T14:01:14.175Z,200
2016-03-26T14:02:14.162Z,200
2016-03-26T14:03:14.196Z,200
2016-03-26T14:04:14.230Z,200
2016-03-26T14:05:14.232Z,200
2016-03-26T14:06:14.267Z,195
2016-03-26T14:07:14.269Z,195
2016-03-26T14:08:14.304Z,195
2016-03-26T14:09:14.322Z,195
2016-03-26T14:10:14.325Z,195
2016-03-26T14:11:14.358Z,195
2016-03-26T14:12:14.392Z,190